sensor_id;sensor_type;location;lat;lon;timestamp;P1;durP1;ratioP1;P2;durP2;ratioP2
84121;SDS011;74217;51.106;17.084;2024-03-07T00:02:09;34.42;;;20.63;;
84121;SDS011;74217;51.106;17.084;2024-03-07T00:05:13;34.88;;;19.27;;
84121;SDS011;74217;51.106;17.084;2024-03-07T00:07:58;35.67;;;21.50;;
84121;SDS011;74217;51.106;17.084;2024-03-07T00:10:43;37.95;;;21.25;;
84121;SDS011;74217;51.106;17.084;2024-03-07T00:13:28;35.50;;;23.40;;
84121;SDS011;74217;51.106;17.084;2024-03-07T00:16:13;35.47;;;19.58;;
84121;SDS011;74217;51.106;17.084;2024-03-07T00:18:58;32.33;;;19.85;;
84121;SDS011;74217;51.106;17.084;2024-03-07T00:21:45;35.28;;;18.67;;
84121;SDS011;74217;51.106;17.084;2024-03-07T00:24:30;34.05;;;21.15;;
84121;SDS011;74217;51.106;17.084;2024-03-07T00:27:15;33.95;;;19.73;;
84121;SDS011;74217;51.106;17.084;2024-03-07T00:30:00;35.88;;;21.48;;
84121;SDS011;74217;51.106;17.084;2024-03-07T00:32:46;31.77;;;19.27;;
84121;SDS011;74217;51.106;17.084;2024-03-07T00:35:32;34.35;;;20.80;;
84121;SDS011;74217;51.106;17.084;2024-03-07T00:38:16;32.35;;;20.92;;
84121;SDS011;74217;51.106;17.084;2024-03-07T00:41:02;33.42;;;19.27;;
84121;SDS011;74217;51.106;17.084;2024-03-07T00:43:46;28.45;;;18.05;;
84121;SDS011;74217;51.106;17.084;2024-03-07T00:46:32;30.50;;;18.95;;
84121;SDS011;74217;51.106;17.084;2024-03-07T00:49:17;35.78;;;19.60;;
84121;SDS011;74217;51.106;17.084;2024-03-07T00:52:02;33.75;;;18.40;;
84121;SDS011;74217;51.106;17.084;2024-03-07T00:54:47;29.33;;;18.73;;
84121;SDS011;74217;51.106;17.084;2024-03-07T00:57:32;33.20;;;19.65;;
84121;SDS011;74217;51.106;17.084;2024-03-07T01:00:18;31.65;;;18.75;;
84121;SDS011;74217;51.106;17.084;2024-03-07T01:03:05;34.10;;;19.80;;
84121;SDS011;74217;51.106;17.084;2024-03-07T01:05:50;32.92;;;18.98;;
84121;SDS011;74217;51.106;17.084;2024-03-07T01:08:36;29.10;;;18.25;;
84121;SDS011;74217;51.106;17.084;2024-03-07T01:11:21;35.22;;;19.40;;
84121;SDS011;74217;51.106;17.084;2024-03-07T01:14:06;32.63;;;18.63;;
84121;SDS011;74217;51.106;17.084;2024-03-07T01:16:51;34.15;;;19.63;;
84121;SDS011;74217;51.106;17.084;2024-03-07T01:19:36;30.33;;;19.13;;
84121;SDS011;74217;51.106;17.084;2024-03-07T01:22:22;37.72;;;20.80;;
84121;SDS011;74217;51.106;17.084;2024-03-07T01:25:07;30.08;;;18.92;;
84121;SDS011;74217;51.106;17.084;2024-03-07T01:27:52;34.35;;;17.40;;
84121;SDS011;74217;51.106;17.084;2024-03-07T01:30:37;34.42;;;19.17;;
84121;SDS011;74217;51.106;17.084;2024-03-07T01:33:22;29.08;;;16.65;;
84121;SDS011;74217;51.106;17.084;2024-03-07T01:36:07;31.55;;;18.52;;
84121;SDS011;74217;51.106;17.084;2024-03-07T01:38:53;33.97;;;18.55;;
84121;SDS011;74217;51.106;17.084;2024-03-07T01:41:38;33.80;;;18.88;;
84121;SDS011;74217;51.106;17.084;2024-03-07T01:44:23;29.08;;;18.27;;
84121;SDS011;74217;51.106;17.084;2024-03-07T01:47:09;30.90;;;17.98;;
84121;SDS011;74217;51.106;17.084;2024-03-07T01:49:54;31.05;;;18.77;;
84121;SDS011;74217;51.106;17.084;2024-03-07T01:52:40;32.60;;;21.63;;
84121;SDS011;74217;51.106;17.084;2024-03-07T01:55:26;31.20;;;18.75;;
84121;SDS011;74217;51.106;17.084;2024-03-07T01:58:11;29.13;;;16.50;;
84121;SDS011;74217;51.106;17.084;2024-03-07T02:01:02;25.60;;;17.42;;
84121;SDS011;74217;51.106;17.084;2024-03-07T02:03:47;32.28;;;18.42;;
84121;SDS011;74217;51.106;17.084;2024-03-07T02:06:32;29.45;;;17.67;;
84121;SDS011;74217;51.106;17.084;2024-03-07T02:09:18;30.40;;;18.80;;
84121;SDS011;74217;51.106;17.084;2024-03-07T02:12:04;27.85;;;16.55;;
84121;SDS011;74217;51.106;17.084;2024-03-07T02:14:50;30.67;;;17.25;;
84121;SDS011;74217;51.106;17.084;2024-03-07T02:17:34;28.75;;;17.85;;
84121;SDS011;74217;51.106;17.084;2024-03-07T02:20:21;30.00;;;17.48;;
84121;SDS011;74217;51.106;17.084;2024-03-07T02:23:06;26.50;;;15.35;;
84121;SDS011;74217;51.106;17.084;2024-03-07T02:25:52;30.00;;;16.67;;
84121;SDS011;74217;51.106;17.084;2024-03-07T02:28:36;30.13;;;18.00;;
84121;SDS011;74217;51.106;17.084;2024-03-07T02:31:21;27.92;;;16.70;;
84121;SDS011;74217;51.106;17.084;2024-03-07T02:34:19;30.10;;;17.02;;
84121;SDS011;74217;51.106;17.084;2024-03-07T02:37:04;25.40;;;15.02;;
84121;SDS011;74217;51.106;17.084;2024-03-07T02:39:49;25.05;;;16.52;;
84121;SDS011;74217;51.106;17.084;2024-03-07T02:42:34;30.38;;;18.55;;
84121;SDS011;74217;51.106;17.084;2024-03-07T02:45:20;30.75;;;17.58;;
84121;SDS011;74217;51.106;17.084;2024-03-07T02:48:05;31.88;;;19.85;;
84121;SDS011;74217;51.106;17.084;2024-03-07T02:50:53;26.15;;;16.02;;
84121;SDS011;74217;51.106;17.084;2024-03-07T02:53:38;29.48;;;15.52;;
84121;SDS011;74217;51.106;17.084;2024-03-07T02:56:22;26.13;;;15.52;;
84121;SDS011;74217;51.106;17.084;2024-03-07T02:59:07;30.20;;;16.67;;
84121;SDS011;74217;51.106;17.084;2024-03-07T03:01:52;27.92;;;15.45;;
84121;SDS011;74217;51.106;17.084;2024-03-07T03:04:37;25.50;;;17.70;;
84121;SDS011;74217;51.106;17.084;2024-03-07T03:07:21;24.17;;;16.58;;
84121;SDS011;74217;51.106;17.084;2024-03-07T03:10:06;27.25;;;16.67;;
84121;SDS011;74217;51.106;17.084;2024-03-07T03:12:54;27.13;;;16.15;;
84121;SDS011;74217;51.106;17.084;2024-03-07T03:15:42;27.38;;;15.82;;
84121;SDS011;74217;51.106;17.084;2024-03-07T03:18:27;30.40;;;16.02;;
84121;SDS011;74217;51.106;17.084;2024-03-07T03:21:13;24.45;;;16.35;;
84121;SDS011;74217;51.106;17.084;2024-03-07T03:23:57;25.48;;;15.68;;
84121;SDS011;74217;51.106;17.084;2024-03-07T03:26:43;27.33;;;17.10;;
84121;SDS011;74217;51.106;17.084;2024-03-07T03:29:28;27.27;;;15.50;;
84121;SDS011;74217;51.106;17.084;2024-03-07T03:32:14;28.17;;;15.85;;
84121;SDS011;74217;51.106;17.084;2024-03-07T03:34:58;28.40;;;17.23;;
84121;SDS011;74217;51.106;17.084;2024-03-07T03:37:43;25.50;;;17.48;;
84121;SDS011;74217;51.106;17.084;2024-03-07T03:40:28;27.55;;;16.65;;
84121;SDS011;74217;51.106;17.084;2024-03-07T03:43:13;32.83;;;17.30;;
84121;SDS011;74217;51.106;17.084;2024-03-07T03:45:59;26.08;;;16.75;;
84121;SDS011;74217;51.106;17.084;2024-03-07T03:48:46;28.75;;;17.40;;
84121;SDS011;74217;51.106;17.084;2024-03-07T03:51:31;28.27;;;17.17;;
84121;SDS011;74217;51.106;17.084;2024-03-07T03:54:17;30.00;;;16.38;;
84121;SDS011;74217;51.106;17.084;2024-03-07T03:57:01;29.13;;;17.88;;
84121;SDS011;74217;51.106;17.084;2024-03-07T03:59:47;25.42;;;16.58;;
84121;SDS011;74217;51.106;17.084;2024-03-07T04:02:32;29.60;;;15.98;;
84121;SDS011;74217;51.106;17.084;2024-03-07T04:05:18;26.95;;;16.23;;
84121;SDS011;74217;51.106;17.084;2024-03-07T04:08:04;25.42;;;16.65;;
84121;SDS011;74217;51.106;17.084;2024-03-07T04:10:50;27.10;;;17.83;;
84121;SDS011;74217;51.106;17.084;2024-03-07T04:13:34;32.13;;;18.20;;
84121;SDS011;74217;51.106;17.084;2024-03-07T04:16:19;30.60;;;17.40;;
84121;SDS011;74217;51.106;17.084;2024-03-07T04:19:04;31.10;;;16.50;;
84121;SDS011;74217;51.106;17.084;2024-03-07T04:21:49;27.77;;;16.80;;
84121;SDS011;74217;51.106;17.084;2024-03-07T04:24:34;30.58;;;17.33;;
84121;SDS011;74217;51.106;17.084;2024-03-07T04:27:20;29.30;;;17.73;;
84121;SDS011;74217;51.106;17.084;2024-03-07T04:30:06;113.57;;;57.25;;
84121;SDS011;74217;51.106;17.084;2024-03-07T04:32:53;45.70;;;26.10;;
84121;SDS011;74217;51.106;17.084;2024-03-07T04:35:38;42.47;;;23.45;;
84121;SDS011;74217;51.106;17.084;2024-03-07T04:38:24;34.75;;;20.45;;
84121;SDS011;74217;51.106;17.084;2024-03-07T04:41:08;31.17;;;17.65;;
84121;SDS011;74217;51.106;17.084;2024-03-07T04:43:55;30.23;;;18.13;;
84121;SDS011;74217;51.106;17.084;2024-03-07T04:46:40;29.48;;;16.25;;
84121;SDS011;74217;51.106;17.084;2024-03-07T04:49:28;28.70;;;16.52;;
84121;SDS011;74217;51.106;17.084;2024-03-07T04:52:15;27.17;;;16.80;;
84121;SDS011;74217;51.106;17.084;2024-03-07T04:55:00;27.23;;;16.38;;
84121;SDS011;74217;51.106;17.084;2024-03-07T04:57:45;27.30;;;16.77;;
84121;SDS011;74217;51.106;17.084;2024-03-07T05:00:30;30.38;;;17.75;;
84121;SDS011;74217;51.106;17.084;2024-03-07T05:03:15;26.60;;;17.25;;
84121;SDS011;74217;51.106;17.084;2024-03-07T05:06:00;28.70;;;18.60;;
84121;SDS011;74217;51.106;17.084;2024-03-07T05:08:45;31.70;;;18.33;;
84121;SDS011;74217;51.106;17.084;2024-03-07T05:11:30;29.30;;;16.65;;
84121;SDS011;74217;51.106;17.084;2024-03-07T05:14:15;29.58;;;16.17;;
84121;SDS011;74217;51.106;17.084;2024-03-07T05:17:01;32.35;;;19.95;;
84121;SDS011;74217;51.106;17.084;2024-03-07T05:19:49;26.02;;;17.15;;
84121;SDS011;74217;51.106;17.084;2024-03-07T05:22:34;25.95;;;16.02;;
84121;SDS011;74217;51.106;17.084;2024-03-07T05:25:19;30.88;;;20.70;;
84121;SDS011;74217;51.106;17.084;2024-03-07T05:28:06;26.30;;;16.45;;
84121;SDS011;74217;51.106;17.084;2024-03-07T05:30:50;27.63;;;16.90;;
84121;SDS011;74217;51.106;17.084;2024-03-07T05:33:36;28.48;;;17.42;;
84121;SDS011;74217;51.106;17.084;2024-03-07T05:36:22;30.42;;;19.75;;
84121;SDS011;74217;51.106;17.084;2024-03-07T05:39:08;24.83;;;15.38;;
84121;SDS011;74217;51.106;17.084;2024-03-07T05:41:55;25.63;;;15.70;;
84121;SDS011;74217;51.106;17.084;2024-03-07T05:44:42;27.38;;;17.50;;
84121;SDS011;74217;51.106;17.084;2024-03-07T05:47:27;29.20;;;17.13;;
84121;SDS011;74217;51.106;17.084;2024-03-07T05:50:12;28.40;;;17.08;;
84121;SDS011;74217;51.106;17.084;2024-03-07T05:57:24;27.13;;;14.93;;
84121;SDS011;74217;51.106;17.084;2024-03-07T06:00:09;25.73;;;16.55;;
84121;SDS011;74217;51.106;17.084;2024-03-07T06:02:55;27.85;;;18.33;;
84121;SDS011;74217;51.106;17.084;2024-03-07T06:05:41;27.63;;;16.42;;
84121;SDS011;74217;51.106;17.084;2024-03-07T06:12:33;27.85;;;16.02;;
84121;SDS011;74217;51.106;17.084;2024-03-07T06:15:18;28.38;;;15.85;;
84121;SDS011;74217;51.106;17.084;2024-03-07T06:18:05;27.38;;;17.05;;
84121;SDS011;74217;51.106;17.084;2024-03-07T06:20:52;25.98;;;15.68;;
84121;SDS011;74217;51.106;17.084;2024-03-07T06:23:37;29.45;;;15.77;;
84121;SDS011;74217;51.106;17.084;2024-03-07T06:26:22;24.92;;;15.40;;
84121;SDS011;74217;51.106;17.084;2024-03-07T06:29:21;28.23;;;15.90;;
84121;SDS011;74217;51.106;17.084;2024-03-07T06:32:06;29.45;;;14.70;;
84121;SDS011;74217;51.106;17.084;2024-03-07T06:34:51;24.10;;;14.57;;
84121;SDS011;74217;51.106;17.084;2024-03-07T06:37:37;26.67;;;17.42;;
84121;SDS011;74217;51.106;17.084;2024-03-07T06:40:21;30.23;;;15.77;;
84121;SDS011;74217;51.106;17.084;2024-03-07T06:43:07;26.30;;;16.27;;
84121;SDS011;74217;51.106;17.084;2024-03-07T06:45:53;23.65;;;14.52;;
84121;SDS011;74217;51.106;17.084;2024-03-07T06:48:39;24.85;;;15.60;;
84121;SDS011;74217;51.106;17.084;2024-03-07T06:51:24;21.75;;;15.20;;
84121;SDS011;74217;51.106;17.084;2024-03-07T06:54:09;26.55;;;16.98;;
84121;SDS011;74217;51.106;17.084;2024-03-07T06:56:55;27.80;;;15.65;;
84121;SDS011;74217;51.106;17.084;2024-03-07T06:59:40;24.58;;;15.25;;
84121;SDS011;74217;51.106;17.084;2024-03-07T07:02:25;24.88;;;15.40;;
84121;SDS011;74217;51.106;17.084;2024-03-07T07:05:12;26.50;;;15.68;;
84121;SDS011;74217;51.106;17.084;2024-03-07T07:08:00;25.25;;;16.08;;
84121;SDS011;74217;51.106;17.084;2024-03-07T07:10:45;27.92;;;17.52;;
84121;SDS011;74217;51.106;17.084;2024-03-07T07:13:31;28.70;;;16.63;;
84121;SDS011;74217;51.106;17.084;2024-03-07T07:16:16;24.35;;;14.70;;
84121;SDS011;74217;51.106;17.084;2024-03-07T07:19:03;24.90;;;15.27;;
84121;SDS011;74217;51.106;17.084;2024-03-07T07:21:48;27.67;;;16.45;;
84121;SDS011;74217;51.106;17.084;2024-03-07T07:24:38;24.80;;;15.30;;
84121;SDS011;74217;51.106;17.084;2024-03-07T07:27:23;28.27;;;18.48;;
84121;SDS011;74217;51.106;17.084;2024-03-07T07:30:08;24.15;;;14.63;;
84121;SDS011;74217;51.106;17.084;2024-03-07T07:32:54;22.35;;;14.45;;
84121;SDS011;74217;51.106;17.084;2024-03-07T07:35:39;26.95;;;15.35;;
84121;SDS011;74217;51.106;17.084;2024-03-07T07:38:25;23.92;;;15.70;;
84121;SDS011;74217;51.106;17.084;2024-03-07T07:41:10;26.08;;;17.38;;
84121;SDS011;74217;51.106;17.084;2024-03-07T07:43:56;25.23;;;17.27;;
84121;SDS011;74217;51.106;17.084;2024-03-07T07:46:41;23.30;;;15.70;;
84121;SDS011;74217;51.106;17.084;2024-03-07T07:49:26;26.95;;;16.50;;
84121;SDS011;74217;51.106;17.084;2024-03-07T07:52:12;26.20;;;16.45;;
84121;SDS011;74217;51.106;17.084;2024-03-07T07:54:59;26.52;;;14.45;;
84121;SDS011;74217;51.106;17.084;2024-03-07T07:57:47;31.38;;;15.75;;
84121;SDS011;74217;51.106;17.084;2024-03-07T08:00:33;25.80;;;14.93;;
84121;SDS011;74217;51.106;17.084;2024-03-07T08:03:19;22.50;;;14.65;;
84121;SDS011;74217;51.106;17.084;2024-03-07T08:06:06;31.58;;;15.80;;
84121;SDS011;74217;51.106;17.084;2024-03-07T08:08:50;27.17;;;16.20;;
84121;SDS011;74217;51.106;17.084;2024-03-07T08:11:36;24.80;;;15.70;;
84121;SDS011;74217;51.106;17.084;2024-03-07T08:14:25;25.15;;;14.65;;
84121;SDS011;74217;51.106;17.084;2024-03-07T08:17:13;30.20;;;16.73;;
84121;SDS011;74217;51.106;17.084;2024-03-07T08:19:57;22.90;;;14.57;;
84121;SDS011;74217;51.106;17.084;2024-03-07T08:22:42;21.33;;;13.38;;
84121;SDS011;74217;51.106;17.084;2024-03-07T08:25:28;28.33;;;15.43;;
84121;SDS011;74217;51.106;17.084;2024-03-07T08:28:13;21.05;;;14.00;;
84121;SDS011;74217;51.106;17.084;2024-03-07T08:30:57;21.23;;;14.95;;
84121;SDS011;74217;51.106;17.084;2024-03-07T08:33:43;26.42;;;14.73;;
84121;SDS011;74217;51.106;17.084;2024-03-07T08:36:29;24.65;;;15.20;;
84121;SDS011;74217;51.106;17.084;2024-03-07T08:39:13;21.65;;;15.07;;
84121;SDS011;74217;51.106;17.084;2024-03-07T08:41:57;27.08;;;13.35;;
84121;SDS011;74217;51.106;17.084;2024-03-07T08:44:42;23.92;;;13.85;;
84121;SDS011;74217;51.106;17.084;2024-03-07T08:47:27;23.35;;;13.70;;
84121;SDS011;74217;51.106;17.084;2024-03-07T08:50:12;23.20;;;13.27;;
84121;SDS011;74217;51.106;17.084;2024-03-07T08:52:57;21.65;;;14.50;;
84121;SDS011;74217;51.106;17.084;2024-03-07T08:55:42;23.13;;;14.52;;
84121;SDS011;74217;51.106;17.084;2024-03-07T08:58:27;28.15;;;14.50;;
84121;SDS011;74217;51.106;17.084;2024-03-07T09:01:12;21.58;;;15.07;;
84121;SDS011;74217;51.106;17.084;2024-03-07T09:03:57;25.05;;;14.40;;
84121;SDS011;74217;51.106;17.084;2024-03-07T09:06:43;24.95;;;15.25;;
84121;SDS011;74217;51.106;17.084;2024-03-07T09:09:30;22.48;;;14.07;;
84121;SDS011;74217;51.106;17.084;2024-03-07T09:12:14;25.20;;;14.90;;
84121;SDS011;74217;51.106;17.084;2024-03-07T09:14:59;23.00;;;16.52;;
84121;SDS011;74217;51.106;17.084;2024-03-07T09:17:44;27.90;;;18.08;;
84121;SDS011;74217;51.106;17.084;2024-03-07T09:20:31;22.90;;;14.38;;
84121;SDS011;74217;51.106;17.084;2024-03-07T09:23:16;23.63;;;15.40;;
84121;SDS011;74217;51.106;17.084;2024-03-07T09:26:01;26.50;;;14.43;;
84121;SDS011;74217;51.106;17.084;2024-03-07T09:28:46;30.80;;;16.98;;
84121;SDS011;74217;51.106;17.084;2024-03-07T09:31:34;26.92;;;14.88;;
84121;SDS011;74217;51.106;17.084;2024-03-07T09:34:20;24.52;;;15.18;;
84121;SDS011;74217;51.106;17.084;2024-03-07T09:37:05;24.55;;;16.08;;
84121;SDS011;74217;51.106;17.084;2024-03-07T09:39:52;23.08;;;16.33;;
84121;SDS011;74217;51.106;17.084;2024-03-07T09:42:44;25.08;;;14.43;;
84121;SDS011;74217;51.106;17.084;2024-03-07T09:45:35;29.15;;;16.90;;
84121;SDS011;74217;51.106;17.084;2024-03-07T09:48:20;25.00;;;16.77;;
84121;SDS011;74217;51.106;17.084;2024-03-07T09:51:09;24.05;;;14.95;;
84121;SDS011;74217;51.106;17.084;2024-03-07T09:56:42;22.98;;;14.48;;
84121;SDS011;74217;51.106;17.084;2024-03-07T09:59:27;23.73;;;14.93;;
84121;SDS011;74217;51.106;17.084;2024-03-07T10:02:17;22.35;;;15.57;;
84121;SDS011;74217;51.106;17.084;2024-03-07T10:05:05;23.52;;;14.95;;
84121;SDS011;74217;51.106;17.084;2024-03-07T10:07:53;25.70;;;16.15;;
84121;SDS011;74217;51.106;17.084;2024-03-07T10:10:38;23.42;;;14.48;;
84121;SDS011;74217;51.106;17.084;2024-03-07T10:13:24;23.90;;;15.00;;
84121;SDS011;74217;51.106;17.084;2024-03-07T10:16:10;23.23;;;15.30;;
84121;SDS011;74217;51.106;17.084;2024-03-07T10:18:55;22.52;;;15.20;;
84121;SDS011;74217;51.106;17.084;2024-03-07T10:21:41;22.42;;;15.52;;
84121;SDS011;74217;51.106;17.084;2024-03-07T10:24:26;23.85;;;16.08;;
84121;SDS011;74217;51.106;17.084;2024-03-07T10:27:11;28.73;;;16.70;;
84121;SDS011;74217;51.106;17.084;2024-03-07T10:29:56;29.90;;;16.08;;
84121;SDS011;74217;51.106;17.084;2024-03-07T10:32:41;23.02;;;14.30;;
84121;SDS011;74217;51.106;17.084;2024-03-07T10:35:26;26.58;;;16.25;;
84121;SDS011;74217;51.106;17.084;2024-03-07T10:38:11;23.23;;;15.77;;
84121;SDS011;74217;51.106;17.084;2024-03-07T10:40:56;25.23;;;15.50;;
84121;SDS011;74217;51.106;17.084;2024-03-07T10:43:44;23.45;;;14.48;;
84121;SDS011;74217;51.106;17.084;2024-03-07T10:46:35;25.92;;;15.30;;
84121;SDS011;74217;51.106;17.084;2024-03-07T10:49:21;20.48;;;13.15;;
84121;SDS011;74217;51.106;17.084;2024-03-07T10:52:17;24.42;;;11.93;;
84121;SDS011;74217;51.106;17.084;2024-03-07T10:55:19;28.02;;;15.20;;
84121;SDS011;74217;51.106;17.084;2024-03-07T10:58:14;20.13;;;13.18;;
84121;SDS011;74217;51.106;17.084;2024-03-07T11:01:01;21.83;;;11.90;;
84121;SDS011;74217;51.106;17.084;2024-03-07T11:03:50;24.77;;;14.52;;
84121;SDS011;74217;51.106;17.084;2024-03-07T11:06:36;21.10;;;13.45;;
84121;SDS011;74217;51.106;17.084;2024-03-07T11:09:22;25.20;;;13.68;;
84121;SDS011;74217;51.106;17.084;2024-03-07T11:12:07;21.95;;;14.63;;
84121;SDS011;74217;51.106;17.084;2024-03-07T11:14:56;20.38;;;12.68;;
84121;SDS011;74217;51.106;17.084;2024-03-07T11:17:42;20.42;;;13.40;;
84121;SDS011;74217;51.106;17.084;2024-03-07T11:20:35;20.75;;;12.82;;
84121;SDS011;74217;51.106;17.084;2024-03-07T11:23:25;23.88;;;13.88;;
84121;SDS011;74217;51.106;17.084;2024-03-07T11:26:13;23.77;;;13.68;;
84121;SDS011;74217;51.106;17.084;2024-03-07T11:28:58;24.15;;;14.05;;
84121;SDS011;74217;51.106;17.084;2024-03-07T11:31:43;19.75;;;12.13;;
84121;SDS011;74217;51.106;17.084;2024-03-07T11:34:30;24.88;;;14.10;;
84121;SDS011;74217;51.106;17.084;2024-03-07T11:43:11;20.05;;;11.27;;
84121;SDS011;74217;51.106;17.084;2024-03-07T11:45:57;23.95;;;11.70;;
84121;SDS011;74217;51.106;17.084;2024-03-07T11:48:43;20.20;;;11.50;;
84121;SDS011;74217;51.106;17.084;2024-03-07T11:51:28;20.13;;;10.88;;
84121;SDS011;74217;51.106;17.084;2024-03-07T11:54:13;21.00;;;11.93;;
84121;SDS011;74217;51.106;17.084;2024-03-07T11:56:59;19.80;;;13.40;;
84121;SDS011;74217;51.106;17.084;2024-03-07T11:59:45;21.90;;;12.13;;
84121;SDS011;74217;51.106;17.084;2024-03-07T12:02:36;18.25;;;10.82;;
84121;SDS011;74217;51.106;17.084;2024-03-07T12:05:22;18.13;;;11.52;;
84121;SDS011;74217;51.106;17.084;2024-03-07T12:08:07;20.23;;;11.82;;
84121;SDS011;74217;51.106;17.084;2024-03-07T12:10:53;17.88;;;12.57;;
84121;SDS011;74217;51.106;17.084;2024-03-07T12:13:40;17.65;;;13.15;;
84121;SDS011;74217;51.106;17.084;2024-03-07T12:16:26;17.75;;;12.00;;
84121;SDS011;74217;51.106;17.084;2024-03-07T12:19:11;16.45;;;11.90;;
84121;SDS011;74217;51.106;17.084;2024-03-07T12:21:57;18.02;;;10.98;;
84121;SDS011;74217;51.106;17.084;2024-03-07T12:24:44;21.02;;;12.95;;
84121;SDS011;74217;51.106;17.084;2024-03-07T12:27:30;19.88;;;11.50;;
84121;SDS011;74217;51.106;17.084;2024-03-07T12:30:16;17.95;;;12.43;;
84121;SDS011;74217;51.106;17.084;2024-03-07T12:33:03;18.20;;;12.70;;
84121;SDS011;74217;51.106;17.084;2024-03-07T12:35:48;19.88;;;13.43;;
84121;SDS011;74217;51.106;17.084;2024-03-07T12:38:36;18.83;;;12.30;;
84121;SDS011;74217;51.106;17.084;2024-03-07T12:41:21;18.90;;;11.57;;
84121;SDS011;74217;51.106;17.084;2024-03-07T12:44:06;18.58;;;11.15;;
84121;SDS011;74217;51.106;17.084;2024-03-07T12:46:57;15.75;;;10.60;;
84121;SDS011;74217;51.106;17.084;2024-03-07T12:49:42;17.05;;;10.48;;
84121;SDS011;74217;51.106;17.084;2024-03-07T12:52:28;17.00;;;10.25;;
84121;SDS011;74217;51.106;17.084;2024-03-07T12:55:13;16.77;;;10.50;;
84121;SDS011;74217;51.106;17.084;2024-03-07T12:57:58;17.13;;;10.95;;
84121;SDS011;74217;51.106;17.084;2024-03-07T13:00:43;16.08;;;10.20;;
84121;SDS011;74217;51.106;17.084;2024-03-07T13:03:28;19.15;;;12.02;;
84121;SDS011;74217;51.106;17.084;2024-03-07T13:06:14;24.10;;;11.18;;
84121;SDS011;74217;51.106;17.084;2024-03-07T13:09:00;17.15;;;11.15;;
84121;SDS011;74217;51.106;17.084;2024-03-07T13:11:44;15.00;;;10.32;;
84121;SDS011;74217;51.106;17.084;2024-03-07T13:14:31;15.93;;;10.95;;
84121;SDS011;74217;51.106;17.084;2024-03-07T13:17:19;17.83;;;11.73;;
84121;SDS011;74217;51.106;17.084;2024-03-07T13:20:04;18.95;;;11.68;;
84121;SDS011;74217;51.106;17.084;2024-03-07T13:22:55;20.05;;;11.27;;
84121;SDS011;74217;51.106;17.084;2024-03-07T13:25:43;17.80;;;11.23;;
84121;SDS011;74217;51.106;17.084;2024-03-07T13:28:28;17.05;;;11.38;;
84121;SDS011;74217;51.106;17.084;2024-03-07T13:31:14;20.38;;;11.35;;
84121;SDS011;74217;51.106;17.084;2024-03-07T13:34:01;17.17;;;11.18;;
84121;SDS011;74217;51.106;17.084;2024-03-07T13:36:47;17.02;;;10.75;;
84121;SDS011;74217;51.106;17.084;2024-03-07T13:39:32;16.10;;;10.43;;
84121;SDS011;74217;51.106;17.084;2024-03-07T13:42:17;18.58;;;13.18;;
84121;SDS011;74217;51.106;17.084;2024-03-07T13:45:02;18.92;;;12.00;;
84121;SDS011;74217;51.106;17.084;2024-03-07T13:47:51;16.90;;;11.98;;
84121;SDS011;74217;51.106;17.084;2024-03-07T13:50:36;16.52;;;10.27;;
84121;SDS011;74217;51.106;17.084;2024-03-07T13:53:29;18.38;;;11.95;;
84121;SDS011;74217;51.106;17.084;2024-03-07T14:25:29;18.05;;;12.27;;
84121;SDS011;74217;51.106;17.084;2024-03-07T14:31:26;18.60;;;13.10;;
84121;SDS011;74217;51.106;17.084;2024-03-07T14:34:14;21.40;;;13.20;;
84121;SDS011;74217;51.106;17.084;2024-03-07T14:37:04;21.30;;;12.77;;
84121;SDS011;74217;51.106;17.084;2024-03-07T14:40:02;20.63;;;12.52;;
84121;SDS011;74217;51.106;17.084;2024-03-07T14:42:55;18.73;;;11.32;;
84121;SDS011;74217;51.106;17.084;2024-03-07T14:45:43;18.27;;;13.90;;
84121;SDS011;74217;51.106;17.084;2024-03-07T14:48:28;19.02;;;12.82;;
84121;SDS011;74217;51.106;17.084;2024-03-07T14:51:13;22.75;;;13.20;;
84121;SDS011;74217;51.106;17.084;2024-03-07T14:53:58;18.10;;;12.20;;
84121;SDS011;74217;51.106;17.084;2024-03-07T14:56:45;17.92;;;12.10;;
84121;SDS011;74217;51.106;17.084;2024-03-07T14:59:30;18.02;;;11.98;;
84121;SDS011;74217;51.106;17.084;2024-03-07T15:02:16;22.63;;;13.15;;
84121;SDS011;74217;51.106;17.084;2024-03-07T15:05:02;24.48;;;13.25;;
84121;SDS011;74217;51.106;17.084;2024-03-07T15:07:49;19.98;;;13.20;;
84121;SDS011;74217;51.106;17.084;2024-03-07T15:10:41;17.90;;;11.63;;
84121;SDS011;74217;51.106;17.084;2024-03-07T15:13:34;20.10;;;11.13;;
84121;SDS011;74217;51.106;17.084;2024-03-07T15:16:19;17.13;;;11.77;;
84121;SDS011;74217;51.106;17.084;2024-03-07T15:19:04;18.42;;;10.50;;
84121;SDS011;74217;51.106;17.084;2024-03-07T15:21:51;18.83;;;10.48;;
84121;SDS011;74217;51.106;17.084;2024-03-07T15:24:36;19.40;;;11.07;;
84121;SDS011;74217;51.106;17.084;2024-03-07T15:27:23;17.83;;;11.48;;
84121;SDS011;74217;51.106;17.084;2024-03-07T15:30:08;15.93;;;11.13;;
84121;SDS011;74217;51.106;17.084;2024-03-07T15:32:59;19.27;;;12.40;;
84121;SDS011;74217;51.106;17.084;2024-03-07T15:35:44;20.05;;;12.48;;
84121;SDS011;74217;51.106;17.084;2024-03-07T15:38:30;20.80;;;12.02;;
84121;SDS011;74217;51.106;17.084;2024-03-07T15:41:17;19.50;;;12.70;;
84121;SDS011;74217;51.106;17.084;2024-03-07T15:44:02;22.02;;;12.65;;
84121;SDS011;74217;51.106;17.084;2024-03-07T15:46:46;19.77;;;11.32;;
84121;SDS011;74217;51.106;17.084;2024-03-07T15:49:32;20.13;;;11.45;;
84121;SDS011;74217;51.106;17.084;2024-03-07T15:52:21;20.50;;;11.45;;
84121;SDS011;74217;51.106;17.084;2024-03-07T15:55:07;18.40;;;11.70;;
84121;SDS011;74217;51.106;17.084;2024-03-07T15:58:01;17.45;;;11.35;;
84121;SDS011;74217;51.106;17.084;2024-03-07T16:00:50;22.92;;;12.57;;
84121;SDS011;74217;51.106;17.084;2024-03-07T16:03:35;20.75;;;12.35;;
84121;SDS011;74217;51.106;17.084;2024-03-07T16:06:20;22.35;;;13.90;;
84121;SDS011;74217;51.106;17.084;2024-03-07T16:09:05;20.85;;;14.50;;
84121;SDS011;74217;51.106;17.084;2024-03-07T16:11:50;19.40;;;12.55;;
84121;SDS011;74217;51.106;17.084;2024-03-07T16:14:37;21.83;;;11.90;;
84121;SDS011;74217;51.106;17.084;2024-03-07T16:17:22;20.13;;;12.50;;
84121;SDS011;74217;51.106;17.084;2024-03-07T16:20:07;20.63;;;11.93;;
84121;SDS011;74217;51.106;17.084;2024-03-07T16:22:56;23.08;;;13.23;;
84121;SDS011;74217;51.106;17.084;2024-03-07T16:25:41;22.70;;;11.90;;
84121;SDS011;74217;51.106;17.084;2024-03-07T16:28:26;19.90;;;13.38;;
84121;SDS011;74217;51.106;17.084;2024-03-07T16:31:12;21.85;;;12.93;;
84121;SDS011;74217;51.106;17.084;2024-03-07T16:33:57;20.38;;;13.13;;
84121;SDS011;74217;51.106;17.084;2024-03-07T16:36:42;20.38;;;14.52;;
84121;SDS011;74217;51.106;17.084;2024-03-07T16:39:27;21.83;;;12.35;;
84121;SDS011;74217;51.106;17.084;2024-03-07T16:42:11;19.55;;;13.52;;
84121;SDS011;74217;51.106;17.084;2024-03-07T16:44:59;24.42;;;14.40;;
84121;SDS011;74217;51.106;17.084;2024-03-07T16:47:53;20.95;;;12.73;;